Time;durP1;ratioP1;P1;durP2;ratioP2;P2;SDS_P1;SDS_P2;PMS_P1;PMS_P2;Temp;Humidity;BMP_temperature;BMP_pressure;BME280_temperature;BME280_humidity;BME280_pressure;Samples;Min_cycle;Max_cycle;Signal;HPM_P1;HPM_P2
2022/03/24 00:05:00;;;;;;;0.00;0.00;;;;;;;18.87;23.11;102846.53;10529656;28;20044;-78
2022/03/24 00:10:02;;;;;;;2.38;2.28;;;;;;;18.38;23.83;102843.66;10525467;28;20048;-78
2022/03/24 00:15:06;;;;;;;0.00;0.00;;;;;;;17.25;26.36;102850.13;10525745;28;20648;-78
2022/03/24 00:20:08;;;;;;;0.00;0.00;;;;;;;16.50;28.39;102846.97;10524151;28;20483;-77
2022/03/24 00:25:10;;;;;;;0.00;0.00;;;;;;;18.65;24.36;102837.31;10526725;28;20120;-79
2022/03/24 00:30:12;;;;;;;0.00;0.00;;;;;;;17.79;26.57;102840.34;10538783;28;20039;-78
2022/03/24 00:35:14;;;;;;;20.27;2.88;;;;;;;16.09;26.81;102842.16;10522769;28;20553;-77
2022/03/24 00:40:17;;;;;;;16.45;7.53;;;;;;;13.15;33.65;102851.06;10522305;28;20514;-78
2022/03/24 00:45:22;;;;;;;0.00;0.00;;;;;;;16.59;28.97;102834.25;10531580;28;20043;-78
2022/03/24 00:50:24;;;;;;;0.00;0.00;;;;;;;18.37;24.59;102828.81;10520698;28;20109;-77
2022/03/24 00:55:26;;;;;;;0.00;0.00;;;;;;;17.62;26.34;102830.34;10552953;28;20059;-78
2022/03/24 01:00:28;;;;;;;0.00;0.00;;;;;;;17.59;25.61;102827.66;10535962;28;20081;-78
2022/03/24 01:05:30;;;;;;;0.00;0.00;;;;;;;18.01;25.49;102819.25;10521217;28;20044;-77
2022/03/24 01:10:32;;;;;;;0.00;0.00;;;;;;;17.84;25.36;102818.78;10519881;28;20059;-78
2022/03/24 01:15:34;;;;;;;0.00;0.00;;;;;;;17.64;25.43;102822.59;10538119;28;21039;-78
2022/03/24 01:20:36;;;;;;;0.00;0.00;;;;;;;17.57;26.28;102811.09;10519965;28;20048;-78
2022/03/24 01:25:42;;;;;;;0.00;0.00;;;;;;;16.08;26.67;102822.19;10537186;28;20122;-78
2022/03/24 01:30:43;;;;;;;0.00;0.00;;;;;;;16.01;28.13;102820.22;10519156;28;20048;-78
2022/03/24 01:35:46;;;;;;;0.00;0.00;;;;;;;16.65;26.21;102812.72;10515006;28;20063;-77
2022/03/24 01:40:48;;;;;;;0.00;0.00;;;;;;;16.31;26.17;102809.06;10518883;28;20101;-77
2022/03/24 01:45:50;;;;;;;0.00;0.00;;;;;;;16.48;25.59;102807.91;10540661;28;20483;-77
2022/03/24 01:50:52;;;;;;;0.00;0.00;;;;;;;17.42;24.40;102794.22;10518437;28;20066;-77
2022/03/24 01:55:54;;;;;;;0.00;0.00;;;;;;;16.84;25.10;102800.31;10514998;28;20175;-77
2022/03/24 02:01:25;;;;;;;0.00;0.00;;;;;;;16.46;26.47;102804.38;10550065;28;20059;-77
2022/03/24 02:06:27;;;;;;;0.00;0.00;;;;;;;16.62;26.71;102804.84;10533848;28;20461;-77
2022/03/24 02:11:31;;;;;;;0.30;0.30;;;;;;;17.07;26.85;102799.31;10507635;28;20074;-77
2022/03/24 02:16:35;;;;;;;11.85;10.88;;;;;;;17.58;25.97;102797.22;10494659;28;20388;-77
2022/03/24 02:21:39;;;;;;;0.00;0.00;;;;;;;16.44;26.57;102795.63;10512488;28;20047;-77
2022/03/24 02:26:42;;;;;;;0.00;0.00;;;;;;;16.98;26.83;102793.81;10519988;28;20566;-78
2022/03/24 02:31:49;;;;;;;0.00;0.00;;;;;;;16.91;26.75;102797.91;10516922;28;20467;-77
2022/03/24 02:36:51;;;;;;;5.70;5.35;;;;;;;16.20;26.64;102800.00;10534038;28;20080;-77
2022/03/24 02:41:55;;;;;;;2.20;2.00;;;;;;;15.41;27.87;102800.78;10533558;28;20038;-77
2022/03/24 02:46:59;;;;;;;0.00;0.00;;;;;;;15.81;27.28;102796.09;10532898;28;20127;-77
2022/03/24 02:52:01;;;;;;;0.52;0.52;;;;;;;15.21;27.46;102800.94;10527111;28;20036;-77
2022/03/24 02:57:04;;;;;;;0.00;0.00;;;;;;;16.08;25.99;102785.78;10545338;28;20453;-76
2022/03/24 03:02:15;;;;;;;0.00;0.00;;;;;;;15.99;27.54;102786.38;10515798;28;20118;-77
2022/03/24 03:07:17;;;;;;;0.00;0.00;;;;;;;14.84;28.79;102801.25;10508206;28;20102;-77
2022/03/24 03:12:19;;;;;;;0.00;0.00;;;;;;;15.78;26.87;102794.28;10525360;28;20502;-77
2022/03/24 03:17:20;;;;;;;0.05;0.05;;;;;;;15.79;26.23;102796.06;10528440;28;20127;-77
2022/03/24 03:22:22;;;;;;;0.38;0.38;;;;;;;15.53;26.73;102792.53;10533644;28;20043;-77
2022/03/24 03:27:24;;;;;;;0.30;0.20;;;;;;;15.83;27.13;102790.16;10510127;28;20519;-76
2022/03/24 03:32:25;;;;;;;0.00;0.00;;;;;;;16.33;25.56;102792.66;10532484;28;20048;-77
2022/03/24 03:37:27;;;;;;;0.00;0.00;;;;;;;16.38;26.87;102790.22;10530825;28;20127;-76
2022/03/24 03:42:28;;;;;;;0.00;0.00;;;;;;;16.05;27.16;102790.88;10532269;28;20097;-77
2022/03/24 03:47:30;;;;;;;0.00;0.00;;;;;;;15.26;28.20;102795.03;10526245;28;20078;-76
2022/03/24 03:52:32;;;;;;;1.27;0.55;;;;;;;14.57;28.33;102796.72;10511082;28;20048;-76
2022/03/24 03:57:33;;;;;;;6.55;6.10;;;;;;;14.81;27.56;102796.81;10526874;28;20036;-76
2022/03/24 04:02:35;;;;;;;1.40;1.27;;;;;;;15.70;26.66;102793.13;10529006;28;20048;-77
2022/03/24 04:07:37;;;;;;;0.05;0.05;;;;;;;16.30;25.36;102787.41;10512134;28;20048;-78
2022/03/24 04:12:38;;;;;;;0.00;0.00;;;;;;;14.82;28.03;102793.41;10539302;28;20075;-77
2022/03/24 04:17:41;;;;;;;0.00;0.00;;;;;;;14.84;28.15;102796.97;10539169;28;20119;-77
2022/03/24 04:22:43;;;;;;;2.40;2.20;;;;;;;14.36;28.54;102801.91;10516464;28;20134;-77
2022/03/24 04:27:44;;;;;;;0.00;0.00;;;;;;;14.37;29.27;102798.50;10514004;28;20111;-78
2022/03/24 04:32:46;;;;;;;0.00;0.00;;;;;;;12.80;31.87;102803.75;10533045;28;20072;-78
2022/03/24 04:37:49;;;;;;;0.38;0.38;;;;;;;13.42;30.10;102804.88;10515301;28;20174;-77
2022/03/24 04:42:53;;;;;;;0.00;0.00;;;;;;;14.91;29.34;102798.97;10525573;28;20555;-78
2022/03/24 04:47:55;;;;;;;0.00;0.00;;;;;;;15.35;28.56;102805.75;10532998;28;20491;-77
2022/03/24 04:52:57;;;;;;;0.00;0.00;;;;;;;15.57;28.27;102807.41;10532173;28;20079;-77
2022/03/24 04:57:59;;;;;;;0.00;0.00;;;;;;;14.46;28.65;102804.06;10515404;28;20510;-77
2022/03/24 05:03:00;;;;;;;0.00;0.00;;;;;;;13.20;31.18;102810.78;10513213;28;20079;-77
2022/03/24 05:08:03;;;;;;;0.10;0.10;;;;;;;12.38;31.95;102809.50;10511933;28;20039;-77
2022/03/24 05:13:06;;;;;;;0.10;0.10;;;;;;;15.07;27.37;102817.72;10513628;28;20041;-78
2022/03/24 05:18:08;;;;;;;0.03;0.03;;;;;;;13.66;29.55;102814.56;10537932;28;20067;-77
2022/03/24 05:23:10;;;;;;;0.10;0.10;;;;;;;13.51;29.76;102819.06;10521084;28;20433;-78
2022/03/24 05:28:12;;;;;;;0.00;0.00;;;;;;;13.47;30.13;102818.03;10521575;28;20101;-77
2022/03/24 05:33:14;;;;;;;0.00;0.00;;;;;;;14.38;28.31;102813.25;10520935;28;20048;-78
2022/03/24 05:38:15;;;;;;;0.00;0.00;;;;;;;15.24;27.56;102813.16;10521091;28;20047;-77
2022/03/24 05:43:18;;;;;;;0.00;0.00;;;;;;;15.91;25.65;102808.63;10539052;28;20067;-77
2022/03/24 05:48:19;;;;;;;0.00;0.00;;;;;;;15.53;26.96;102811.59;10538647;28;20130;-78
2022/03/24 05:53:42;;;;;;;0.08;0.08;;;;;;;15.58;25.86;102823.88;10513229;28;20449;-78
2022/03/24 05:58:45;;;;;;;0.00;0.00;;;;;;;16.37;25.98;102813.59;10535454;28;20539;-78
2022/03/24 06:03:51;;;;;;;0.00;0.00;;;;;;;16.41;26.16;102816.34;10516795;28;20123;-78
2022/03/24 06:08:53;;;;;;;0.00;0.00;;;;;;;16.37;26.73;102814.47;10518054;28;20129;-77
2022/03/24 06:13:55;;;;;;;0.10;0.10;;;;;;;13.99;29.90;102826.31;10515502;28;20139;-77
2022/03/24 06:18:57;;;;;;;0.10;0.10;;;;;;;15.25;28.49;102819.22;10537391;28;20072;-77
2022/03/24 06:23:58;;;;;;;0.20;0.20;;;;;;;13.14;34.00;102824.31;10518586;28;20123;-78
2022/03/24 06:29:01;;;;;;;0.00;0.00;;;;;;;17.15;27.33;102816.88;10537408;28;20071;-77
2022/03/24 06:34:02;;;;;;;0.93;0.55;;;;;;;13.98;32.95;102830.63;10537049;28;20406;-78
2022/03/24 06:39:10;;;;;;;0.20;0.20;;;;;;;15.54;31.23;102831.56;10551122;28;20536;-78
2022/03/24 06:44:11;;;;;;;0.00;0.00;;;;;;;17.76;28.45;102820.31;10535244;28;20075;-78
2022/03/24 06:49:13;;;;;;;0.00;0.00;;;;;;;16.08;30.74;102826.53;10517914;28;20052;-78
2022/03/24 06:54:15;;;;;;;0.03;0.03;;;;;;;15.36;33.36;102836.09;10529407;28;20123;-78
2022/03/24 06:59:17;;;;;;;0.20;0.20;;;;;;;16.98;30.48;102830.28;10532869;28;20273;-78
2022/03/24 07:04:18;;;;;;;0.10;0.10;;;;;;;18.01;29.55;102821.84;10532929;28;20071;-78
2022/03/24 07:09:20;;;;;;;0.00;0.00;;;;;;;18.50;29.06;102823.91;10512870;28;20089;-79
2022/03/24 07:14:22;;;;;;;0.17;0.17;;;;;;;19.13;28.89;102827.06;10494009;28;20071;-77
2022/03/24 07:19:24;;;;;;;0.00;0.00;;;;;;;19.37;27.30;102831.03;10542484;28;20036;-79
2022/03/24 07:24:26;;;;;;;0.13;0.13;;;;;;;20.04;27.07;102834.03;10526591;28;20110;-79
2022/03/24 07:29:27;;;;;;;1.55;1.45;;;;;;;18.50;29.62;102840.44;10512607;28;20132;-79
2022/03/24 07:34:30;;;;;;;9.23;1.95;;;;;;;18.61;29.54;102842.44;10515739;28;20540;-79
2022/03/24 07:39:32;;;;;;;0.15;0.15;;;;;;;18.41;31.02;102844.56;10549324;28;20124;-79
2022/03/24 07:44:33;;;;;;;0.65;0.50;;;;;;;17.99;30.00;102839.19;10533194;28;20078;-79
2022/03/24 07:49:35;;;;;;;11.57;3.92;;;;;;;17.25;29.55;102850.13;10515511;28;20067;-78
2022/03/24 07:54:48;;;;;;;0.00;0.00;;;;;;;18.81;29.08;102846.38;10530062;28;20087;-78
2022/03/24 07:59:50;;;;;;;1.38;1.27;;;;;;;18.90;28.50;102843.09;10513691;28;20101;-78
2022/03/24 08:04:54;;;;;;;3.65;3.03;;;;;;;19.26;27.57;102842.13;10529131;28;20120;-78
2022/03/24 08:09:55;;;;;;;0.85;0.85;;;;;;;21.60;25.26;102845.00;10512411;28;20083;-79
2022/03/24 08:14:57;;;;;;;1.45;1.23;;;;;;;19.09;26.54;102857.47;10512728;28;20048;-79
2022/03/24 08:20:03;;;;;;;1.45;1.35;;;;;;;21.18;24.07;102849.72;10514442;28;20044;-78
2022/03/24 08:25:08;;;;;;;0.15;0.15;;;;;;;20.70;26.08;102851.66;10512971;28;20372;-78
2022/03/24 08:30:10;;;;;;;0.10;0.10;;;;;;;21.35;26.25;102855.16;10529919;28;20044;-78
2022/03/24 08:35:11;;;;;;;1.55;1.17;;;;;;;20.80;26.25;102861.47;10513284;28;20131;-79
2022/03/24 08:40:13;;;;;;;1.17;0.85;;;;;;;23.36;22.60;102854.16;10532983;28;20048;-79
2022/03/24 08:45:17;;;;;;;0.25;0.25;;;;;;;23.34;23.43;102858.56;10514171;28;20044;-79
2022/03/24 08:50:37;;;;;;;3.83;1.00;;;;;;;21.32;26.45;102860.41;10529170;28;20079;-79
2022/03/24 08:55:38;;;;;;;3.33;3.00;;;;;;;21.67;24.53;102867.81;10522055;28;20079;-78
2022/03/24 09:00:41;;;;;;;3.60;2.35;;;;;;;22.75;23.44;102868.75;10540222;28;20399;-79
2022/03/24 09:05:42;;;;;;;2.35;1.45;;;;;;;23.41;22.49;102857.72;10540388;28;20123;-79
2022/03/24 09:10:47;;;;;;;3.20;0.85;;;;;;;23.29;22.90;102868.16;10540002;28;20123;-80
2022/03/24 09:15:48;;;;;;;1.98;1.85;;;;;;;23.91;22.31;102863.06;10521649;28;20036;-79
2022/03/24 09:20:50;;;;;;;0.70;0.63;;;;;;;23.81;21.99;102874.44;10519183;28;20044;-78
2022/03/24 09:25:52;;;;;;;0.90;0.65;;;;;;;23.33;23.42;102875.22;10521579;28;20083;-78
2022/03/24 09:31:14;;;;;;;9.18;4.32;;;;;;;22.64;22.70;102873.94;10538213;28;20055;-78
2022/03/24 09:36:16;;;;;;;6.22;4.25;;;;;;;23.20;22.11;102881.28;10537715;28;20043;-79
2022/03/24 09:41:19;;;;;;;5.88;4.18;;;;;;;23.13;21.73;102875.97;10520227;28;20473;-78
2022/03/24 09:46:21;;;;;;;6.43;3.67;;;;;;;22.95;21.21;102881.13;10537054;28;20059;-78
2022/03/24 09:51:25;;;;;;;9.70;3.92;;;;;;;24.94;19.81;102877.09;10538277;28;20063;-79
2022/03/24 09:56:29;;;;;;;3.08;2.17;;;;;;;24.11;19.93;102876.28;10520158;28;20040;-79
2022/03/24 10:01:30;;;;;;;2.60;2.15;;;;;;;25.42;18.91;102874.28;10537156;28;20105;-78
2022/03/24 10:06:33;;;;;;;5.40;2.95;;;;;;;25.46;17.13;102868.09;10538309;28;20078;-79
2022/03/24 10:11:36;;;;;;;3.83;3.25;;;;;;;25.40;16.92;102870.75;10519016;28;20106;-79
2022/03/24 10:16:43;;;;;;;2.53;1.38;;;;;;;25.66;17.08;102875.91;10519326;28;20036;-79
2022/03/24 10:21:48;;;;;;;0.70;0.70;;;;;;;26.53;17.04;102862.91;10537305;28;20036;-77
2022/03/24 10:26:53;;;;;;;2.78;1.95;;;;;;;25.77;16.77;102859.97;10537368;28;20066;-78
2022/03/24 10:31:58;;;;;;;6.93;3.63;;;;;;;25.23;20.06;102863.78;10536102;28;20055;-78
2022/03/24 10:37:14;;;;;;;6.07;4.78;;;;;;;25.06;18.03;102860.34;10536864;28;20491;-78
2022/03/24 10:42:18;;;;;;;1.33;1.25;;;;;;;26.34;17.13;102861.31;10517333;28;20071;-78
2022/03/24 10:47:36;;;;;;;6.55;3.53;;;;;;;25.39;17.44;102853.19;10518272;28;20070;-78
2022/03/24 10:52:37;;;;;;;1.23;1.00;;;;;;;27.20;15.61;102854.19;10509800;28;20075;-77
2022/03/24 10:57:39;;;;;;;1.73;1.33;;;;;;;26.19;17.44;102847.34;10505976;28;20134;-78
2022/03/24 11:02:40;;;;;;;2.97;2.42;;;;;;;26.91;15.48;102847.50;10532725;28;20540;-78
2022/03/24 11:07:51;;;;;;;1.85;1.25;;;;;;;28.24;14.85;102835.00;10518081;28;20054;-78
2022/03/24 11:12:57;;;;;;;4.55;2.35;;;;;;;26.96;15.59;102850.09;10531388;28;20083;-77
2022/03/24 11:17:59;;;;;;;4.28;2.08;;;;;;;28.43;14.90;102834.66;10533946;28;20040;-78
2022/03/24 11:23:09;;;;;;;0.77;0.65;;;;;;;27.73;16.01;102843.78;10533878;28;20048;-78
2022/03/24 11:28:14;;;;;;;4.90;3.10;;;;;;;26.33;16.52;102841.06;10530151;28;20082;-78
2022/03/24 11:33:16;;;;;;;0.52;0.52;;;;;;;29.41;13.70;102823.81;10530745;28;20078;-79
2022/03/24 11:38:20;;;;;;;1.88;1.48;;;;;;;30.57;12.57;102817.34;10551631;27;20040;-79
2022/03/24 11:43:23;;;;;;;5.82;3.22;;;;;;;28.32;13.15;102832.22;10534623;28;20505;-79
2022/03/24 11:48:34;;;;;;;0.40;0.40;;;;;;;31.80;10.86;102809.16;10514664;28;20135;-79
2022/03/24 11:53:39;;;;;;;0.03;0.03;;;;;;;30.38;12.55;102809.84;10531966;28;20090;-79
2022/03/24 11:58:52;;;;;;;3.78;3.42;;;;;;;32.62;12.29;102802.72;10534917;28;20109;-79
2022/03/24 12:03:53;;;;;;;7.82;1.63;;;;;;;30.78;11.78;102810.53;10523774;28;20078;-79
2022/03/24 12:09:04;;;;;;;0.00;0.00;;;;;;;31.37;11.85;102799.91;10494280;28;20048;-79
2022/03/24 12:14:16;;;;;;;0.95;0.95;;;;;;;31.68;11.60;102793.59;10502102;28;20072;-79
2022/03/24 12:19:35;;;;;;;1.23;1.13;;;;;;;28.27;13.07;102796.94;10507651;28;20462;-79
2022/03/24 12:24:37;;;;;;;4.10;3.07;;;;;;;26.51;14.80;102797.72;10512396;28;20445;-79
2022/03/24 12:29:38;;;;;;;1.38;1.27;;;;;;;30.26;11.63;102782.72;10541629;28;20089;-78
2022/03/24 12:34:40;;;;;;;3.78;2.80;;;;;;;28.01;13.54;102785.03;10518393;28;20158;-78
2022/03/24 12:39:41;;;;;;;1.75;1.65;;;;;;;30.25;10.88;102773.91;10518515;28;20487;-78
2022/03/24 12:44:55;;;;;;;0.00;0.00;;;;;;;32.68;10.51;102759.78;10536440;28;20070;-78
2022/03/24 12:49:58;;;;;;;3.22;2.80;;;;;;;31.46;12.38;102763.19;10520487;28;20083;-78
2022/03/24 12:55:00;;;;;;;0.70;0.63;;;;;;;30.24;13.02;102769.50;10522392;28;20052;-79
2022/03/24 13:00:05;;;;;;;4.35;2.80;;;;;;;28.96;12.96;102771.72;10541444;28;20078;-79
2022/03/24 13:05:11;;;;;;;2.10;1.83;;;;;;;27.82;12.77;102764.16;10503693;28;20299;-79
2022/03/24 13:10:14;;;;;;;0.10;0.10;;;;;;;30.59;12.77;102754.34;10537837;28;20567;-79
2022/03/24 13:15:27;;;;;;;2.60;1.95;;;;;;;28.53;12.81;102758.47;10535325;28;20047;-79
2022/03/24 13:20:48;;;;;;;2.25;1.95;;;;;;;27.80;14.21;102754.50;10514966;28;20039;-79
2022/03/24 13:25:54;;;;;;;2.38;1.88;;;;;;;31.13;10.84;102743.84;10530881;28;20125;-79
2022/03/24 13:30:56;;;;;;;4.78;2.35;;;;;;;27.20;14.84;102754.56;10535086;28;20044;-79
2022/03/24 13:36:01;;;;;;;0.80;0.80;;;;;;;27.85;12.20;102744.72;10533478;28;20093;-78
2022/03/24 13:41:05;;;;;;;0.50;0.50;;;;;;;28.49;12.06;102737.31;10517224;28;20469;-79
2022/03/24 13:46:09;;;;;;;2.78;2.40;;;;;;;28.95;11.65;102742.56;10521683;28;20056;-79
2022/03/24 13:51:12;;;;;;;0.77;0.60;;;;;;;29.18;13.58;102731.41;10549391;28;20403;-79
2022/03/24 13:56:16;;;;;;;0.57;0.57;;;;;;;29.72;11.66;102730.09;10499440;28;20039;-79
2022/03/24 14:01:21;;;;;;;0.47;0.22;;;;;;;29.49;12.51;102727.16;10549360;28;20075;-78
2022/03/24 14:06:25;;;;;;;0.57;0.57;;;;;;;30.84;11.54;102721.66;10511029;28;20068;-79
2022/03/24 14:11:30;;;;;;;2.00;1.88;;;;;;;30.77;11.96;102725.44;10527907;28;20269;-79
2022/03/24 14:16:32;;;;;;;0.90;0.80;;;;;;;30.44;12.85;102717.53;10534974;28;20040;-78
2022/03/24 14:22:12;;;;;;;1.40;0.73;;;;;;;29.58;12.53;102705.69;10514435;28;20063;-77
2022/03/24 14:27:19;;;;;;;6.50;2.78;;;;;;;27.81;13.12;102720.03;10510900;28;20080;-78
2022/03/24 14:32:25;;;;;;;0.00;0.00;;;;;;;29.31;11.77;102702.81;10526530;28;20135;-84
2022/03/24 14:37:46;;;;;;;0.03;0.03;;;;;;;31.12;10.40;102694.19;10532278;28;20483;-78
2022/03/24 14:42:48;;;;;;;4.00;2.90;;;;;;;27.28;13.30;102692.69;10528777;28;20518;-79
2022/03/24 14:47:49;;;;;;;4.70;2.28;;;;;;;26.97;13.46;102707.25;10515064;28;20504;-79
2022/03/24 14:52:51;;;;;;;1.08;0.82;;;;;;;27.23;14.43;102695.41;10515463;28;20044;-79
2022/03/24 14:57:53;;;;;;;2.00;1.90;;;;;;;27.43;12.67;102687.19;10532649;28;20456;-79
2022/03/24 15:02:54;;;;;;;3.05;2.55;;;;;;;27.49;13.01;102681.78;10513710;28;20456;-79
2022/03/24 15:07:57;;;;;;;4.68;1.45;;;;;;;26.67;12.45;102690.91;10531287;28;20130;-78
2022/03/24 15:12:59;;;;;;;1.55;1.17;;;;;;;28.10;13.21;102684.22;10531906;28;20040;-79
2022/03/24 15:18:01;;;;;;;0.65;0.65;;;;;;;26.78;12.12;102682.84;10536138;28;20062;-78
2022/03/24 15:23:05;;;;;;;1.90;1.42;;;;;;;26.73;12.45;102685.50;10547715;28;20050;-78
2022/03/24 15:28:07;;;;;;;1.48;0.98;;;;;;;26.48;13.13;102689.41;10531012;28;20542;-77
2022/03/24 15:33:12;;;;;;;2.88;1.48;;;;;;;26.44;13.89;102678.84;10517122;28;20139;-78
2022/03/24 15:38:15;;;;;;;0.28;0.28;;;;;;;27.81;12.77;102669.72;10552640;27;20165;-78
2022/03/24 15:43:20;;;;;;;0.28;0.28;;;;;;;28.18;12.92;102668.16;10532728;28;20458;-78
2022/03/24 15:48:22;;;;;;;0.73;0.63;;;;;;;27.77;13.53;102665.41;10535260;28;20124;-78
2022/03/24 15:53:24;;;;;;;2.17;2.00;;;;;;;27.86;14.48;102665.22;10534435;28;20040;-78
2022/03/24 15:58:25;;;;;;;3.97;2.78;;;;;;;26.31;14.23;102684.34;10533550;28;20051;-78
2022/03/24 16:03:27;;;;;;;2.13;1.15;;;;;;;25.68;15.00;102680.56;10527978;28;20047;-77
2022/03/24 16:08:30;;;;;;;3.17;2.35;;;;;;;25.59;15.76;102677.09;10511519;28;20059;-76
2022/03/24 16:13:31;;;;;;;0.65;0.40;;;;;;;27.36;12.65;102669.63;10506998;28;20079;-77
2022/03/24 16:18:33;;;;;;;1.88;1.02;;;;;;;26.96;13.73;102670.25;10524790;28;20044;-77
2022/03/24 16:23:34;;;;;;;4.95;2.95;;;;;;;25.68;14.52;102675.28;10524332;28;20076;-75
2022/03/24 16:28:36;;;;;;;0.70;0.70;;;;;;;25.80;15.40;102677.81;10539350;28;20067;-75
2022/03/24 16:33:38;;;;;;;0.20;0.13;;;;;;;27.24;14.83;102673.34;10529087;28;20055;-76
2022/03/24 16:38:39;;;;;;;0.00;0.00;;;;;;;27.78;14.80;102675.09;10513470;28;20155;-75
2022/03/24 16:43:41;;;;;;;0.35;0.35;;;;;;;27.10;15.29;102672.72;10514343;28;20068;-76
2022/03/24 16:48:45;;;;;;;0.20;0.15;;;;;;;26.55;14.26;102686.63;10534608;28;20119;-76
2022/03/24 16:53:50;;;;;;;0.10;0.10;;;;;;;26.87;15.03;102687.16;10535314;28;20071;-75
2022/03/24 16:58:52;;;;;;;0.00;0.00;;;;;;;27.73;14.21;102678.72;10539526;28;20040;-76
2022/03/24 17:03:59;;;;;;;0.00;0.00;;;;;;;27.26;15.48;102678.63;10514018;28;20043;-76
2022/03/24 17:09:01;;;;;;;4.07;2.13;;;;;;;26.94;14.62;102688.81;10519304;28;20113;-76
2022/03/24 17:14:05;;;;;;;0.43;0.43;;;;;;;26.44;15.47;102688.56;10520202;28;20130;-76
2022/03/24 17:19:10;;;;;;;0.52;0.52;;;;;;;28.95;13.22;102679.78;10553977;28;20631;-75
2022/03/24 17:24:40;;;;;;;0.00;0.00;;;;;;;29.09;12.59;102682.06;10542019;28;20106;-76
2022/03/24 17:29:43;;;;;;;0.00;0.00;;;;;;;28.89;12.90;102682.53;10537175;28;20066;-76
2022/03/24 17:34:45;;;;;;;0.00;0.00;;;;;;;28.31;14.08;102690.84;10541378;28;20086;-76
2022/03/24 17:39:47;;;;;;;0.00;0.00;;;;;;;28.92;14.11;102689.59;10524131;28;20127;-76
2022/03/24 17:44:48;;;;;;;0.00;0.00;;;;;;;27.73;14.64;102699.91;10541599;28;20083;-76
2022/03/24 17:49:51;;;;;;;4.07;2.08;;;;;;;28.15;14.64;102702.66;10541342;28;20127;-75
2022/03/24 17:54:53;;;;;;;0.00;0.00;;;;;;;27.75;13.56;102709.56;10518867;28;20105;-76
2022/03/24 17:59:55;;;;;;;0.43;0.43;;;;;;;27.13;14.80;102709.69;10537540;28;20118;-76
2022/03/24 18:04:56;;;;;;;0.00;0.00;;;;;;;27.81;13.70;102705.94;10540219;28;20058;-76
2022/03/24 18:09:58;;;;;;;0.00;0.00;;;;;;;26.79;15.85;102716.31;10537802;28;20451;-77
2022/03/24 18:15:00;;;;;;;0.00;0.00;;;;;;;26.31;16.97;102710.75;10537223;28;20131;-77
2022/03/24 18:20:01;;;;;;;0.00;0.00;;;;;;;24.28;21.23;102726.16;10521390;28;20040;-76
2022/03/24 18:25:09;;;;;;;0.10;0.10;;;;;;;23.79;20.70;102731.47;10538639;28;20043;-77
2022/03/24 18:30:11;;;;;;;0.70;0.70;;;;;;;23.83;20.72;102725.31;10540891;28;20553;-77
2022/03/24 18:35:12;;;;;;;0.00;0.00;;;;;;;25.15;18.21;102733.69;10554832;28;20044;-77
2022/03/24 18:40:15;;;;;;;0.00;0.00;;;;;;;25.87;18.29;102727.03;10539764;28;20135;-76
2022/03/24 18:45:18;;;;;;;0.00;0.00;;;;;;;24.67;19.19;102740.13;10521834;28;20044;-76
2022/03/24 18:50:21;;;;;;;0.00;0.00;;;;;;;24.39;18.95;102736.66;10540206;28;20067;-77
2022/03/24 18:55:24;;;;;;;0.00;0.00;;;;;;;24.80;18.26;102742.69;10520482;28;20086;-77
2022/03/24 19:00:25;;;;;;;0.00;0.00;;;;;;;24.55;18.51;102742.75;10539110;28;20078;-76
2022/03/24 19:05:27;;;;;;;0.00;0.00;;;;;;;24.29;19.45;102754.25;10521041;28;20445;-77
2022/03/24 19:10:29;;;;;;;0.00;0.00;;;;;;;24.57;19.10;102751.53;10521067;28;20443;-76
2022/03/24 19:15:30;;;;;;;0.00;0.00;;;;;;;23.94;19.40;102760.41;10520759;28;20115;-77
2022/03/24 19:20:32;;;;;;;30.58;1.45;;;;;;;22.38;20.88;102766.03;10539134;28;20082;-76
2022/03/24 19:25:33;;;;;;;2.47;2.25;;;;;;;21.96;23.46;102770.13;10537510;28;20079;-78
2022/03/24 19:30:37;;;;;;;0.52;0.52;;;;;;;21.95;24.60;102763.13;10521267;28;20472;-77
2022/03/24 19:35:40;;;;;;;3.15;2.95;;;;;;;21.73;25.72;102768.19;10520112;28;20063;-77
2022/03/24 19:40:42;;;;;;;7.53;2.30;;;;;;;20.66;28.58;102773.94;10520328;28;20068;-76
2022/03/24 19:45:43;;;;;;;7.57;2.40;;;;;;;20.79;29.57;102781.13;10537943;28;20071;-76
2022/03/24 19:50:45;;;;;;;6.38;4.15;;;;;;;20.63;29.69;102779.97;10536887;28;20044;-77
2022/03/24 19:55:47;;;;;;;1.85;1.70;;;;;;;21.04;29.42;102786.66;10520192;28;20097;-77
2022/03/24 20:00:49;;;;;;;5.38;2.92;;;;;;;21.61;29.33;102779.44;10520112;28;20059;-76
2022/03/24 20:05:51;;;;;;;9.45;3.10;;;;;;;21.01;29.49;102786.63;10538215;28;20036;-77
2022/03/24 20:10:52;;;;;;;2.20;1.00;;;;;;;21.48;29.25;102791.50;10538031;28;20159;-76
2022/03/24 20:15:55;;;;;;;6.60;2.95;;;;;;;20.66;30.05;102798.38;10519883;28;20151;-76
2022/03/24 20:20:57;;;;;;;3.08;2.03;;;;;;;21.31;29.22;102798.34;10541104;28;20048;-76
2022/03/24 20:25:58;;;;;;;5.07;2.83;;;;;;;21.53;29.05;102796.81;10519433;28;20450;-77
2022/03/24 20:31:00;;;;;;;4.00;1.27;;;;;;;21.65;29.02;102796.09;10519972;28;20111;-76
2022/03/24 20:36:02;;;;;;;1.60;1.50;;;;;;;21.28;28.90;102807.06;10537387;28;20451;-77
2022/03/24 20:41:04;;;;;;;1.52;1.15;;;;;;;20.77;29.69;102812.50;10538546;28;20075;-77
2022/03/24 20:46:07;;;;;;;0.28;0.28;;;;;;;21.96;28.18;102806.88;10538788;28;20048;-77
2022/03/24 20:51:09;;;;;;;0.57;0.55;;;;;;;21.60;28.12;102813.53;10545335;28;20109;-76
2022/03/24 20:56:10;;;;;;;7.32;6.68;;;;;;;21.83;27.79;102819.00;10527414;28;20123;-76
2022/03/24 21:01:12;;;;;;;0.80;0.55;;;;;;;21.37;28.54;102817.63;10545094;28;20072;-76
2022/03/24 21:06:14;;;;;;;0.20;0.20;;;;;;;22.27;27.21;102820.25;10543333;28;20690;-75
2022/03/24 21:11:16;;;;;;;0.00;0.00;;;;;;;22.62;26.75;102824.88;10509949;28;20554;-76
2022/03/24 21:16:18;;;;;;;0.73;0.73;;;;;;;21.62;28.05;102817.91;10520309;28;20041;-76
2022/03/24 21:21:20;;;;;;;0.00;0.00;;;;;;;22.24;27.25;102812.34;10540511;28;20515;-75
2022/03/24 21:26:22;;;;;;;0.00;0.00;;;;;;;22.09;26.90;102810.47;10551639;28;20407;-74
2022/03/24 21:31:23;;;;;;;0.00;0.00;;;;;;;22.59;26.31;102815.22;10525810;28;20055;-75
2022/03/24 21:36:25;;;;;;;0.00;0.00;;;;;;;22.07;27.23;102815.72;10523222;28;20612;-75
2022/03/24 21:41:34;;;;;;;0.10;0.10;;;;;;;22.30;26.71;102823.78;10537629;28;20048;-75
2022/03/24 21:46:36;;;;;;;0.00;0.00;;;;;;;22.77;25.84;102830.22;10541078;28;20090;-77
2022/03/24 21:51:39;;;;;;;0.00;0.00;;;;;;;22.41;26.83;102826.50;10527880;28;20556;-76
2022/03/24 21:56:40;;;;;;;0.00;0.00;;;;;;;22.49;25.86;102834.41;10541367;28;20428;-76
2022/03/24 22:01:42;;;;;;;0.00;0.00;;;;;;;23.85;23.99;102831.47;10543404;28;20395;-76
2022/03/24 22:06:43;;;;;;;0.00;0.00;;;;;;;22.67;25.08;102844.19;10506960;28;20048;-76
2022/03/24 22:11:45;;;;;;;0.00;0.00;;;;;;;22.32;25.88;102839.53;10529183;28;20093;-76
2022/03/24 22:16:46;;;;;;;0.00;0.00;;;;;;;21.19;26.97;102857.59;10541683;28;20032;-75
2022/03/24 22:21:48;;;;;;;0.10;0.10;;;;;;;20.71;27.35;102856.06;10520980;28;20516;-75
2022/03/24 22:26:50;;;;;;;0.00;0.00;;;;;;;21.96;26.12;102854.09;10504273;28;20048;-76
2022/03/24 22:31:51;;;;;;;0.20;0.20;;;;;;;21.64;26.68;102860.78;10520701;28;20135;-77
2022/03/24 22:36:53;;;;;;;0.00;0.00;;;;;;;22.63;24.76;102847.66;10536995;28;20040;-78
2022/03/24 22:41:55;;;;;;;0.00;0.00;;;;;;;22.93;24.31;102849.59;10542325;28;20079;-77
2022/03/24 22:46:57;;;;;;;0.00;0.00;;;;;;;22.05;24.93;102845.41;10540870;28;20048;-78
2022/03/24 22:51:58;;;;;;;0.00;0.00;;;;;;;22.18;25.92;102840.31;10541919;28;20139;-77
2022/03/24 22:57:00;;;;;;;0.00;0.00;;;;;;;21.15;27.02;102842.72;10533490;28;20044;-77
2022/03/24 23:02:12;;;;;;;0.00;0.00;;;;;;;21.42;27.00;102851.75;10539094;28;20080;-75
2022/03/24 23:07:14;;;;;;;0.00;0.00;;;;;;;21.35;26.74;102849.94;10532389;28;20560;-76
2022/03/24 23:12:15;;;;;;;0.00;0.00;;;;;;;22.15;25.96;102835.00;10516565;28;20113;-76
2022/03/24 23:17:18;;;;;;;0.00;0.00;;;;;;;22.24;25.78;102843.84;10520643;28;20051;-75